sensor_id;sensor_type;location;lat;lon;timestamp;pressure;altitude;pressure_sealevel;temperature;humidity
7906;BME280;13291;40.472;-3.878;2023-06-19T00:00:07;53005.97;;;-139.96;37.37
7906;BME280;13291;40.472;-3.878;2023-06-19T00:02:38;52961.97;;;-139.96;37.43
7906;BME280;13291;40.472;-3.878;2023-06-19T00:05:06;53007.97;;;-139.96;37.27
7906;BME280;13291;40.472;-3.878;2023-06-19T00:07:35;53030.00;;;-139.96;37.29
7906;BME280;13291;40.472;-3.878;2023-06-19T00:10:03;52965.97;;;-139.96;36.73
7906;BME280;13291;40.472;-3.878;2023-06-19T00:12:29;52997.97;;;-139.96;37.01
7906;BME280;13291;40.472;-3.878;2023-06-19T00:14:56;53009.97;;;-139.96;36.77
7906;BME280;13291;40.472;-3.878;2023-06-19T00:17:23;52999.97;;;-139.96;37.96
7906;BME280;13291;40.472;-3.878;2023-06-19T00:19:51;53026.00;;;-139.96;38.15
7906;BME280;13291;40.472;-3.878;2023-06-19T00:22:18;53005.97;;;-139.96;38.23
7906;BME280;13291;40.472;-3.878;2023-06-19T00:24:46;52977.97;;;-139.96;38.31
7906;BME280;13291;40.472;-3.878;2023-06-19T00:27:13;52991.97;;;-139.96;39.01
7906;BME280;13291;40.472;-3.878;2023-06-19T00:29:40;52999.97;;;-139.96;39.04
7906;BME280;13291;40.472;-3.878;2023-06-19T00:32:07;52999.97;;;-139.96;39.05
7906;BME280;13291;40.472;-3.878;2023-06-19T00:34:34;53005.97;;;-139.96;39.46
7906;BME280;13291;40.472;-3.878;2023-06-19T00:37:02;52983.97;;;-139.96;39.54
7906;BME280;13291;40.472;-3.878;2023-06-19T00:39:29;53014.00;;;-139.96;40.36
7906;BME280;13291;40.472;-3.878;2023-06-19T00:41:57;53018.00;;;-139.96;40.31
7906;BME280;13291;40.472;-3.878;2023-06-19T00:44:24;53022.00;;;-139.96;41.04
7906;BME280;13291;40.472;-3.878;2023-06-19T00:46:56;53001.97;;;-139.96;41.01
7906;BME280;13291;40.472;-3.878;2023-06-19T00:49:24;53005.97;;;-139.96;41.67
7906;BME280;13291;40.472;-3.878;2023-06-19T00:51:52;53001.97;;;-139.96;42.03
7906;BME280;13291;40.472;-3.878;2023-06-19T00:54:20;53007.97;;;-139.96;42.42
7906;BME280;13291;40.472;-3.878;2023-06-19T00:56:47;53009.97;;;-139.96;43.24
7906;BME280;13291;40.472;-3.878;2023-06-19T00:59:17;53022.00;;;-139.96;43.72
7906;BME280;13291;40.472;-3.878;2023-06-19T01:01:45;52989.97;;;-139.96;43.40
7906;BME280;13291;40.472;-3.878;2023-06-19T01:04:12;53034.00;;;-139.96;44.48
7906;BME280;13291;40.472;-3.878;2023-06-19T01:06:45;53038.00;;;-139.96;44.13
7906;BME280;13291;40.472;-3.878;2023-06-19T01:09:15;53009.97;;;-139.96;44.76
7906;BME280;13291;40.472;-3.878;2023-06-19T01:11:47;53012.00;;;-139.96;45.02
7906;BME280;13291;40.472;-3.878;2023-06-19T01:14:19;53032.00;;;-139.96;44.95
7906;BME280;13291;40.472;-3.878;2023-06-19T01:16:48;53005.97;;;-139.96;44.99
7906;BME280;13291;40.472;-3.878;2023-06-19T01:19:19;53018.00;;;-139.96;44.62
7906;BME280;13291;40.472;-3.878;2023-06-19T01:21:46;53016.00;;;-139.96;44.76
7906;BME280;13291;40.472;-3.878;2023-06-19T01:24:15;53018.00;;;-139.96;44.40
7906;BME280;13291;40.472;-3.878;2023-06-19T01:26:42;52999.97;;;-139.96;44.63
7906;BME280;13291;40.472;-3.878;2023-06-19T01:29:12;53018.00;;;-139.96;44.98
7906;BME280;13291;40.472;-3.878;2023-06-19T01:31:45;53009.97;;;-139.96;44.87
7906;BME280;13291;40.472;-3.878;2023-06-19T01:34:14;53042.00;;;-139.96;44.69
7906;BME280;13291;40.472;-3.878;2023-06-19T01:36:44;53009.97;;;-139.96;45.17
7906;BME280;13291;40.472;-3.878;2023-06-19T01:39:15;53042.00;;;-139.96;44.99
7906;BME280;13291;40.472;-3.878;2023-06-19T01:41:43;53034.00;;;-139.96;44.89
7906;BME280;13291;40.472;-3.878;2023-06-19T01:44:11;52993.97;;;-139.96;44.64
7906;BME280;13291;40.472;-3.878;2023-06-19T01:46:38;52981.97;;;-139.96;44.79
7906;BME280;13291;40.472;-3.878;2023-06-19T01:49:07;53014.00;;;-139.96;44.53
7906;BME280;13291;40.472;-3.878;2023-06-19T01:51:35;53032.00;;;-139.96;44.10
7906;BME280;13291;40.472;-3.878;2023-06-19T01:54:02;53020.00;;;-139.96;44.47
7906;BME280;13291;40.472;-3.878;2023-06-19T01:56:31;53014.00;;;-139.96;44.03
7906;BME280;13291;40.472;-3.878;2023-06-19T01:58:58;53026.00;;;-139.96;44.42
7906;BME280;13291;40.472;-3.878;2023-06-19T02:01:25;52997.97;;;-139.96;45.60
7906;BME280;13291;40.472;-3.878;2023-06-19T02:03:51;52993.97;;;-139.96;45.66
7906;BME280;13291;40.472;-3.878;2023-06-19T02:06:18;53007.97;;;-139.96;45.50
7906;BME280;13291;40.472;-3.878;2023-06-19T02:08:46;53022.00;;;-139.96;44.74
7906;BME280;13291;40.472;-3.878;2023-06-19T02:11:13;53007.97;;;-139.96;44.62
7906;BME280;13291;40.472;-3.878;2023-06-19T02:13:42;53034.00;;;-139.96;45.11
7906;BME280;13291;40.472;-3.878;2023-06-19T02:16:08;52993.97;;;-139.96;45.34
7906;BME280;13291;40.472;-3.878;2023-06-19T02:18:35;53018.00;;;-139.96;45.76
7906;BME280;13291;40.472;-3.878;2023-06-19T02:21:02;53022.00;;;-139.96;46.01
7906;BME280;13291;40.472;-3.878;2023-06-19T02:23:29;53024.00;;;-139.96;45.90
7906;BME280;13291;40.472;-3.878;2023-06-19T02:25:56;53018.00;;;-139.96;46.16
7906;BME280;13291;40.472;-3.878;2023-06-19T02:28:23;53009.97;;;-139.96;45.58
7906;BME280;13291;40.472;-3.878;2023-06-19T02:30:53;53026.00;;;-139.96;45.67
7906;BME280;13291;40.472;-3.878;2023-06-19T02:33:20;53034.00;;;-139.96;45.90
7906;BME280;13291;40.472;-3.878;2023-06-19T02:35:47;53038.00;;;-139.96;46.12
7906;BME280;13291;40.472;-3.878;2023-06-19T02:38:14;53009.97;;;-139.96;46.39
7906;BME280;13291;40.472;-3.878;2023-06-19T02:40:41;53062.00;;;-139.96;46.30
7906;BME280;13291;40.472;-3.878;2023-06-19T02:43:08;53022.00;;;-139.96;46.04
7906;BME280;13291;40.472;-3.878;2023-06-19T02:45:34;53026.00;;;-139.96;46.17
7906;BME280;13291;40.472;-3.878;2023-06-19T02:48:04;53016.00;;;-139.96;45.75
7906;BME280;13291;40.472;-3.878;2023-06-19T02:50:31;53026.00;;;-139.96;45.73
7906;BME280;13291;40.472;-3.878;2023-06-19T02:52:58;52999.97;;;-139.96;45.96
7906;BME280;13291;40.472;-3.878;2023-06-19T02:55:24;53034.00;;;-139.96;45.92
7906;BME280;13291;40.472;-3.878;2023-06-19T02:57:51;53026.00;;;-139.96;46.12
7906;BME280;13291;40.472;-3.878;2023-06-19T03:00:19;53018.00;;;-139.96;46.07
7906;BME280;13291;40.472;-3.878;2023-06-19T03:02:45;52997.97;;;-139.96;46.50
7906;BME280;13291;40.472;-3.878;2023-06-19T03:05:15;53026.00;;;-139.96;47.13
7906;BME280;13291;40.472;-3.878;2023-06-19T03:07:42;53046.00;;;-139.96;47.63
7906;BME280;13291;40.472;-3.878;2023-06-19T03:10:09;53038.00;;;-139.96;47.79
7906;BME280;13291;40.472;-3.878;2023-06-19T03:12:36;53032.00;;;-139.96;48.23
7906;BME280;13291;40.472;-3.878;2023-06-19T03:15:04;53032.00;;;-139.96;48.49
7906;BME280;13291;40.472;-3.878;2023-06-19T03:17:31;53016.00;;;-139.96;48.30
7906;BME280;13291;40.472;-3.878;2023-06-19T03:19:58;53066.00;;;-139.96;48.89
7906;BME280;13291;40.472;-3.878;2023-06-19T03:22:26;53076.00;;;-139.96;49.46
7906;BME280;13291;40.472;-3.878;2023-06-19T03:24:53;53050.00;;;-139.96;49.64
7906;BME280;13291;40.472;-3.878;2023-06-19T03:27:20;53060.00;;;-139.96;49.96
7906;BME280;13291;40.472;-3.878;2023-06-19T03:29:47;53028.00;;;-139.96;50.19
7906;BME280;13291;40.472;-3.878;2023-06-19T03:32:14;53042.00;;;-139.96;50.69
7906;BME280;13291;40.472;-3.878;2023-06-19T03:34:40;53040.00;;;-139.96;51.48
7906;BME280;13291;40.472;-3.878;2023-06-19T03:37:07;53094.00;;;-139.96;51.34
7906;BME280;13291;40.472;-3.878;2023-06-19T03:39:35;53028.00;;;-139.96;51.76
7906;BME280;13291;40.472;-3.878;2023-06-19T03:42:03;53050.00;;;-139.96;50.92
7906;BME280;13291;40.472;-3.878;2023-06-19T03:44:30;53070.00;;;-139.96;52.37
7906;BME280;13291;40.472;-3.878;2023-06-19T03:46:57;53060.00;;;-139.96;51.94
7906;BME280;13291;40.472;-3.878;2023-06-19T03:49:24;53038.00;;;-139.96;52.46
7906;BME280;13291;40.472;-3.878;2023-06-19T03:51:51;53070.00;;;-139.96;52.77
7906;BME280;13291;40.472;-3.878;2023-06-19T03:54:19;53060.00;;;-139.96;52.97
7906;BME280;13291;40.472;-3.878;2023-06-19T03:56:48;53068.00;;;-139.96;52.53
7906;BME280;13291;40.472;-3.878;2023-06-19T03:59:15;53062.00;;;-139.96;53.35
7906;BME280;13291;40.472;-3.878;2023-06-19T04:01:42;53076.00;;;-139.96;52.74
7906;BME280;13291;40.472;-3.878;2023-06-19T04:04:09;53054.00;;;-139.96;53.32
7906;BME280;13291;40.472;-3.878;2023-06-19T04:06:36;53082.00;;;-139.96;53.17
7906;BME280;13291;40.472;-3.878;2023-06-19T04:09:02;53078.00;;;-139.96;53.15
7906;BME280;13291;40.472;-3.878;2023-06-19T04:11:30;53078.00;;;-139.96;53.35
7906;BME280;13291;40.472;-3.878;2023-06-19T04:13:58;53078.00;;;-139.96;53.32
7906;BME280;13291;40.472;-3.878;2023-06-19T04:16:25;53098.00;;;-139.96;53.20
7906;BME280;13291;40.472;-3.878;2023-06-19T04:18:52;53060.00;;;-139.96;53.33
7906;BME280;13291;40.472;-3.878;2023-06-19T04:21:18;53098.00;;;-139.96;53.30
7906;BME280;13291;40.472;-3.878;2023-06-19T04:23:45;53066.00;;;-139.96;53.58
7906;BME280;13291;40.472;-3.878;2023-06-19T04:26:12;53044.00;;;-139.96;53.68
7906;BME280;13291;40.472;-3.878;2023-06-19T04:28:39;53070.00;;;-139.96;53.51
7906;BME280;13291;40.472;-3.878;2023-06-19T04:31:08;53094.00;;;-139.96;53.13
7906;BME280;13291;40.472;-3.878;2023-06-19T04:33:35;53072.00;;;-139.96;52.86
7906;BME280;13291;40.472;-3.878;2023-06-19T04:36:02;53090.00;;;-139.96;53.04
7906;BME280;13291;40.472;-3.878;2023-06-19T04:38:29;53092.00;;;-139.96;53.24
7906;BME280;13291;40.472;-3.878;2023-06-19T04:40:56;53064.00;;;-139.96;53.23
7906;BME280;13291;40.472;-3.878;2023-06-19T04:43:23;53110.00;;;-139.96;53.08
7906;BME280;13291;40.472;-3.878;2023-06-19T04:45:51;53098.00;;;-139.96;53.51
7906;BME280;13291;40.472;-3.878;2023-06-19T04:48:19;53056.00;;;-139.96;53.42
7906;BME280;13291;40.472;-3.878;2023-06-19T04:50:51;53066.00;;;-139.96;53.51
7906;BME280;13291;40.472;-3.878;2023-06-19T04:53:21;53086.00;;;-139.96;53.72
7906;BME280;13291;40.472;-3.878;2023-06-19T04:55:48;53090.00;;;-139.96;53.89
7906;BME280;13291;40.472;-3.878;2023-06-19T04:58:15;53098.00;;;-139.96;54.01
7906;BME280;13291;40.472;-3.878;2023-06-19T05:00:42;53086.00;;;-139.96;54.11
7906;BME280;13291;40.472;-3.878;2023-06-19T05:03:09;53094.00;;;-139.96;54.31
7906;BME280;13291;40.472;-3.878;2023-06-19T05:05:40;53094.00;;;-139.96;54.60
7906;BME280;13291;40.472;-3.878;2023-06-19T05:08:07;53076.00;;;-139.96;54.66
7906;BME280;13291;40.472;-3.878;2023-06-19T05:10:34;53078.00;;;-139.96;54.54
7906;BME280;13291;40.472;-3.878;2023-06-19T05:13:01;53098.00;;;-139.96;54.82
7906;BME280;13291;40.472;-3.878;2023-06-19T05:15:28;53098.00;;;-139.96;55.10
7906;BME280;13291;40.472;-3.878;2023-06-19T05:17:55;53086.00;;;-139.96;54.85
7906;BME280;13291;40.472;-3.878;2023-06-19T05:20:22;53124.00;;;-139.96;54.99
7906;BME280;13291;40.472;-3.878;2023-06-19T05:22:50;53134.00;;;-139.96;54.93
7906;BME280;13291;40.472;-3.878;2023-06-19T05:25:17;53104.00;;;-139.96;54.96
7906;BME280;13291;40.472;-3.878;2023-06-19T05:27:44;53066.00;;;-139.96;55.13
7906;BME280;13291;40.472;-3.878;2023-06-19T05:30:12;53094.00;;;-139.96;54.73
7906;BME280;13291;40.472;-3.878;2023-06-19T05:32:38;53114.00;;;-139.96;55.06
7906;BME280;13291;40.472;-3.878;2023-06-19T05:35:06;53086.00;;;-139.96;55.16
7906;BME280;13291;40.472;-3.878;2023-06-19T05:37:33;53078.00;;;-139.96;54.88
7906;BME280;13291;40.472;-3.878;2023-06-19T05:40:01;53088.00;;;-139.96;55.21
7906;BME280;13291;40.472;-3.878;2023-06-19T05:42:29;53104.00;;;-139.96;55.16
7906;BME280;13291;40.472;-3.878;2023-06-19T05:44:56;53122.00;;;-139.96;55.64
7906;BME280;13291;40.472;-3.878;2023-06-19T05:47:22;53090.00;;;-139.96;55.80
7906;BME280;13291;40.472;-3.878;2023-06-19T05:49:51;53094.00;;;-139.96;55.72
7906;BME280;13291;40.472;-3.878;2023-06-19T05:52:18;53094.00;;;-139.96;55.91
7906;BME280;13291;40.472;-3.878;2023-06-19T05:54:45;53088.00;;;-139.96;56.07
7906;BME280;13291;40.472;-3.878;2023-06-19T05:57:14;53084.00;;;-139.96;55.98
7906;BME280;13291;40.472;-3.878;2023-06-19T05:59:41;53086.00;;;-139.96;56.10
7906;BME280;13291;40.472;-3.878;2023-06-19T06:02:08;53122.00;;;-139.96;55.96
7906;BME280;13291;40.472;-3.878;2023-06-19T06:04:35;53090.00;;;-139.96;55.97
7906;BME280;13291;40.472;-3.878;2023-06-19T06:07:02;53102.00;;;-139.96;55.77
7906;BME280;13291;40.472;-3.878;2023-06-19T06:09:29;53098.00;;;-139.96;55.55
7906;BME280;13291;40.472;-3.878;2023-06-19T06:11:56;53100.00;;;-139.96;55.24
7906;BME280;13291;40.472;-3.878;2023-06-19T06:14:24;53080.00;;;-139.96;55.22
7906;BME280;13291;40.472;-3.878;2023-06-19T06:16:51;53082.00;;;-139.96;55.24
7906;BME280;13291;40.472;-3.878;2023-06-19T06:19:19;53130.00;;;-139.96;55.63
7906;BME280;13291;40.472;-3.878;2023-06-19T06:21:46;53092.00;;;-139.96;54.93
7906;BME280;13291;40.472;-3.878;2023-06-19T06:24:13;53086.00;;;-139.96;55.06
7906;BME280;13291;40.472;-3.878;2023-06-19T06:26:40;53066.00;;;-139.96;55.05
7906;BME280;13291;40.472;-3.878;2023-06-19T06:29:07;53086.00;;;-139.96;55.13
7906;BME280;13291;40.472;-3.878;2023-06-19T06:31:38;53062.00;;;-139.96;55.25
7906;BME280;13291;40.472;-3.878;2023-06-19T06:34:04;53066.00;;;-139.96;55.62
7906;BME280;13291;40.472;-3.878;2023-06-19T06:36:31;53076.00;;;-139.96;55.49
7906;BME280;13291;40.472;-3.878;2023-06-19T06:38:58;53082.00;;;-139.96;55.70
7906;BME280;13291;40.472;-3.878;2023-06-19T06:41:25;53098.00;;;-139.96;55.42
7906;BME280;13291;40.472;-3.878;2023-06-19T06:43:52;53098.00;;;-139.96;55.34
7906;BME280;13291;40.472;-3.878;2023-06-19T06:46:20;53102.00;;;-139.96;56.23
7906;BME280;13291;40.472;-3.878;2023-06-19T06:48:49;53086.00;;;-139.96;56.24
7906;BME280;13291;40.472;-3.878;2023-06-19T06:51:16;53080.00;;;-139.96;56.80
7906;BME280;13291;40.472;-3.878;2023-06-19T06:53:43;53090.00;;;-139.96;56.77
7906;BME280;13291;40.472;-3.878;2023-06-19T06:56:10;53098.00;;;-139.96;56.87
7906;BME280;13291;40.472;-3.878;2023-06-19T06:58:37;53118.00;;;-139.96;57.53
7906;BME280;13291;40.472;-3.878;2023-06-19T07:01:04;53098.00;;;-139.96;57.59
7906;BME280;13291;40.472;-3.878;2023-06-19T07:03:31;53108.00;;;-139.96;57.27
7906;BME280;13291;40.472;-3.878;2023-06-19T07:05:59;53118.00;;;-139.96;57.16
7906;BME280;13291;40.472;-3.878;2023-06-19T07:08:27;53108.00;;;-139.96;56.75
7906;BME280;13291;40.472;-3.878;2023-06-19T07:10:54;53110.00;;;-139.96;56.94
7906;BME280;13291;40.472;-3.878;2023-06-19T07:13:21;53102.00;;;-139.96;56.64
7906;BME280;13291;40.472;-3.878;2023-06-19T07:15:48;53102.00;;;-139.96;56.59
7906;BME280;13291;40.472;-3.878;2023-06-19T07:18:14;53092.00;;;-139.96;56.66
7906;BME280;13291;40.472;-3.878;2023-06-19T07:20:42;53106.00;;;-139.96;57.27
7906;BME280;13291;40.472;-3.878;2023-06-19T07:23:10;53084.00;;;-139.96;57.67
7906;BME280;13291;40.472;-3.878;2023-06-19T07:25:37;53110.00;;;-139.96;57.91
7906;BME280;13291;40.472;-3.878;2023-06-19T07:28:04;53114.00;;;-139.96;58.48
7906;BME280;13291;40.472;-3.878;2023-06-19T07:30:31;53086.00;;;-139.96;58.09
7906;BME280;13291;40.472;-3.878;2023-06-19T07:32:58;53086.00;;;-139.96;58.92
7906;BME280;13291;40.472;-3.878;2023-06-19T07:35:24;53110.00;;;-139.96;58.46
7906;BME280;13291;40.472;-3.878;2023-06-19T07:37:51;53112.00;;;-139.96;58.40
7906;BME280;13291;40.472;-3.878;2023-06-19T07:40:20;53136.00;;;-139.96;58.22
7906;BME280;13291;40.472;-3.878;2023-06-19T07:42:46;53112.00;;;-139.96;58.11
7906;BME280;13291;40.472;-3.878;2023-06-19T07:45:13;53084.00;;;-139.96;57.93
7906;BME280;13291;40.472;-3.878;2023-06-19T07:47:40;53094.00;;;-139.96;57.48
7906;BME280;13291;40.472;-3.878;2023-06-19T07:50:07;53102.00;;;-139.96;57.58
7906;BME280;13291;40.472;-3.878;2023-06-19T07:52:34;53100.00;;;-139.96;58.35
7906;BME280;13291;40.472;-3.878;2023-06-19T07:55:02;53108.00;;;-139.96;58.22
7906;BME280;13291;40.472;-3.878;2023-06-19T07:57:31;53080.00;;;-139.96;58.41
7906;BME280;13291;40.472;-3.878;2023-06-19T07:59:58;53102.00;;;-139.96;57.70
7906;BME280;13291;40.472;-3.878;2023-06-19T08:02:24;53128.00;;;-139.96;57.82
7906;BME280;13291;40.472;-3.878;2023-06-19T08:04:53;53092.00;;;-139.96;58.15
7906;BME280;13291;40.472;-3.878;2023-06-19T08:07:19;53102.00;;;-139.96;58.61
7906;BME280;13291;40.472;-3.878;2023-06-19T08:09:46;53074.00;;;-139.96;58.03
7906;BME280;13291;40.472;-3.878;2023-06-19T08:12:14;53110.00;;;-139.96;57.77
7906;BME280;13291;40.472;-3.878;2023-06-19T08:14:42;53092.00;;;-139.96;57.79
7906;BME280;13291;40.472;-3.878;2023-06-19T08:17:09;53076.00;;;-139.96;58.35
7906;BME280;13291;40.472;-3.878;2023-06-19T08:19:36;53104.00;;;-139.96;57.77
7906;BME280;13291;40.472;-3.878;2023-06-19T08:22:05;53082.00;;;-139.96;58.00
7906;BME280;13291;40.472;-3.878;2023-06-19T08:24:31;53074.00;;;-139.96;57.79
7906;BME280;13291;40.472;-3.878;2023-06-19T08:26:58;53092.00;;;-139.96;57.76
7906;BME280;13291;40.472;-3.878;2023-06-19T08:29:25;53094.00;;;-139.96;57.65
7906;BME280;13291;40.472;-3.878;2023-06-19T08:31:53;53096.00;;;-139.96;58.05
7906;BME280;13291;40.472;-3.878;2023-06-19T08:34:20;53090.00;;;-139.96;58.49
7906;BME280;13291;40.472;-3.878;2023-06-19T08:36:47;53140.00;;;-139.96;59.47
7906;BME280;13291;40.472;-3.878;2023-06-19T08:39:14;53122.00;;;-139.96;59.62
7906;BME280;13291;40.472;-3.878;2023-06-19T08:41:42;53144.00;;;-139.96;59.50
7906;BME280;13291;40.472;-3.878;2023-06-19T08:44:09;53106.00;;;-139.96;58.91
7906;BME280;13291;40.472;-3.878;2023-06-19T08:46:36;53102.00;;;-139.96;59.08
7906;BME280;13291;40.472;-3.878;2023-06-19T08:49:05;53104.00;;;-139.96;59.34
7906;BME280;13291;40.472;-3.878;2023-06-19T08:51:33;53122.00;;;-139.96;60.07
7906;BME280;13291;40.472;-3.878;2023-06-19T08:54:01;53124.00;;;-139.96;60.25
7906;BME280;13291;40.472;-3.878;2023-06-19T08:56:29;53144.00;;;-139.96;61.05
7906;BME280;13291;40.472;-3.878;2023-06-19T08:59:08;53122.00;;;-139.96;60.88
7906;BME280;13291;40.472;-3.878;2023-06-19T09:01:35;53102.00;;;-139.96;60.86
7906;BME280;13291;40.472;-3.878;2023-06-19T09:04:10;53112.00;;;-139.96;60.04
7906;BME280;13291;40.472;-3.878;2023-06-19T09:06:46;53130.00;;;-139.96;59.32
7906;BME280;13291;40.472;-3.878;2023-06-19T09:09:13;53112.00;;;-139.96;59.05
7906;BME280;13291;40.472;-3.878;2023-06-19T09:11:40;53088.00;;;-139.96;58.30
7906;BME280;13291;40.472;-3.878;2023-06-19T09:14:10;53096.00;;;-139.96;57.66
7906;BME280;13291;40.472;-3.878;2023-06-19T09:16:38;53090.00;;;-139.96;56.85
7906;BME280;13291;40.472;-3.878;2023-06-19T09:19:05;53114.00;;;-139.96;59.18
7906;BME280;13291;40.472;-3.878;2023-06-19T09:21:35;53110.00;;;-139.96;58.94
7906;BME280;13291;40.472;-3.878;2023-06-19T09:24:05;53102.00;;;-139.96;58.60
7906;BME280;13291;40.472;-3.878;2023-06-19T09:26:32;53114.00;;;-139.96;58.91
7906;BME280;13291;40.472;-3.878;2023-06-19T09:29:09;53094.00;;;-139.96;57.58
7906;BME280;13291;40.472;-3.878;2023-06-19T09:31:36;53084.00;;;-139.96;56.31
7906;BME280;13291;40.472;-3.878;2023-06-19T09:34:04;53072.00;;;-139.96;55.11
7906;BME280;13291;40.472;-3.878;2023-06-19T09:36:33;53064.00;;;-139.96;54.50
7906;BME280;13291;40.472;-3.878;2023-06-19T09:39:02;53088.00;;;-139.96;53.61
7906;BME280;13291;40.472;-3.878;2023-06-19T09:41:31;53096.00;;;-139.96;53.67
7906;BME280;13291;40.472;-3.878;2023-06-19T09:43:59;53094.00;;;-139.96;53.67
7906;BME280;13291;40.472;-3.878;2023-06-19T09:46:30;53086.00;;;-139.96;53.43
7906;BME280;13291;40.472;-3.878;2023-06-19T09:49:00;53086.00;;;-139.96;54.03
7906;BME280;13291;40.472;-3.878;2023-06-19T09:51:31;53102.00;;;-139.96;53.58
7906;BME280;13291;40.472;-3.878;2023-06-19T09:54:01;53082.00;;;-139.96;54.05
7906;BME280;13291;40.472;-3.878;2023-06-19T09:56:29;53072.00;;;-139.96;53.74
7906;BME280;13291;40.472;-3.878;2023-06-19T09:58:58;53090.00;;;-139.96;54.01
7906;BME280;13291;40.472;-3.878;2023-06-19T10:01:27;53080.00;;;-139.96;53.56
7906;BME280;13291;40.472;-3.878;2023-06-19T10:04:05;53088.00;;;-139.96;51.42
7906;BME280;13291;40.472;-3.878;2023-06-19T10:06:33;53056.00;;;-139.96;50.15
7906;BME280;13291;40.472;-3.878;2023-06-19T10:09:10;53082.00;;;-139.96;50.85
7906;BME280;13291;40.472;-3.878;2023-06-19T10:11:50;53044.00;;;-139.96;49.01
7906;BME280;13291;40.472;-3.878;2023-06-19T10:14:18;53084.00;;;-139.96;47.82
7906;BME280;13291;40.472;-3.878;2023-06-19T10:16:45;53070.00;;;-139.96;47.32
7906;BME280;13291;40.472;-3.878;2023-06-19T10:19:14;53082.00;;;-139.96;48.13
7906;BME280;13291;40.472;-3.878;2023-06-19T10:21:46;53060.00;;;-139.96;49.22
7906;BME280;13291;40.472;-3.878;2023-06-19T10:24:16;53056.00;;;-139.96;48.87
7906;BME280;13291;40.472;-3.878;2023-06-19T10:26:55;53080.00;;;-139.96;48.95
7906;BME280;13291;40.472;-3.878;2023-06-19T10:29:22;53052.00;;;-139.96;48.25
7906;BME280;13291;40.472;-3.878;2023-06-19T10:31:51;53040.00;;;-139.96;48.84
7906;BME280;13291;40.472;-3.878;2023-06-19T10:34:18;53040.00;;;-139.96;48.84
7906;BME280;13291;40.472;-3.878;2023-06-19T10:36:44;53064.00;;;-139.96;48.72
7906;BME280;13291;40.472;-3.878;2023-06-19T10:39:11;53064.00;;;-139.96;49.10
7906;BME280;13291;40.472;-3.878;2023-06-19T10:41:43;53064.00;;;-139.96;49.48
7906;BME280;13291;40.472;-3.878;2023-06-19T10:44:09;53036.00;;;-139.96;49.74
7906;BME280;13291;40.472;-3.878;2023-06-19T10:46:38;53090.00;;;-139.96;49.57
7906;BME280;13291;40.472;-3.878;2023-06-19T10:49:07;53048.00;;;-139.96;48.46
7906;BME280;13291;40.472;-3.878;2023-06-19T10:51:36;53054.00;;;-139.96;48.38
7906;BME280;13291;40.472;-3.878;2023-06-19T10:54:04;53058.00;;;-139.96;48.57
7906;BME280;13291;40.472;-3.878;2023-06-19T10:56:31;53036.00;;;-139.96;50.20
7906;BME280;13291;40.472;-3.878;2023-06-19T10:59:01;53070.00;;;-139.96;49.99
7906;BME280;13291;40.472;-3.878;2023-06-19T11:01:33;53070.00;;;-139.96;48.98
7906;BME280;13291;40.472;-3.878;2023-06-19T11:04:02;53058.00;;;-139.96;49.32
7906;BME280;13291;40.472;-3.878;2023-06-19T11:06:30;53060.00;;;-139.96;49.41
7906;BME280;13291;40.472;-3.878;2023-06-19T11:08:57;53078.00;;;-139.96;49.05
7906;BME280;13291;40.472;-3.878;2023-06-19T11:11:34;53056.00;;;-139.96;47.62
7906;BME280;13291;40.472;-3.878;2023-06-19T11:14:03;53072.00;;;-139.96;47.46
7906;BME280;13291;40.472;-3.878;2023-06-19T11:16:30;53070.00;;;-139.96;47.37
7906;BME280;13291;40.472;-3.878;2023-06-19T11:18:57;53036.00;;;-139.96;47.91
7906;BME280;13291;40.472;-3.878;2023-06-19T11:21:29;53050.00;;;-139.96;47.73
7906;BME280;13291;40.472;-3.878;2023-06-19T11:23:58;53070.00;;;-139.96;48.24
7906;BME280;13291;40.472;-3.878;2023-06-19T11:26:25;53050.00;;;-139.96;48.58
7906;BME280;13291;40.472;-3.878;2023-06-19T11:28:53;53034.00;;;-139.96;49.21
7906;BME280;13291;40.472;-3.878;2023-06-19T11:31:26;53070.00;;;-139.96;49.26
7906;BME280;13291;40.472;-3.878;2023-06-19T11:33:58;53038.00;;;-139.96;48.07
7906;BME280;13291;40.472;-3.878;2023-06-19T11:36:25;53046.00;;;-139.96;47.65
7906;BME280;13291;40.472;-3.878;2023-06-19T11:38:52;53042.00;;;-139.96;47.61
7906;BME280;13291;40.472;-3.878;2023-06-19T11:41:25;53072.00;;;-139.96;47.23
7906;BME280;13291;40.472;-3.878;2023-06-19T11:43:58;53038.00;;;-139.96;47.58
7906;BME280;13291;40.472;-3.878;2023-06-19T11:46:30;53086.00;;;-139.96;47.94
7906;BME280;13291;40.472;-3.878;2023-06-19T11:49:07;53070.00;;;-139.96;47.61
7906;BME280;13291;40.472;-3.878;2023-06-19T11:51:35;53020.00;;;-139.96;48.24
7906;BME280;13291;40.472;-3.878;2023-06-19T11:54:02;53054.00;;;-139.96;46.43
7906;BME280;13291;40.472;-3.878;2023-06-19T11:56:29;53068.00;;;-139.96;47.18
7906;BME280;13291;40.472;-3.878;2023-06-19T11:58:56;53018.00;;;-139.96;47.28
7906;BME280;13291;40.472;-3.878;2023-06-19T12:01:23;53030.00;;;-139.96;46.58
7906;BME280;13291;40.472;-3.878;2023-06-19T12:03:51;53046.00;;;-139.96;46.00
7906;BME280;13291;40.472;-3.878;2023-06-19T12:06:18;53034.00;;;-139.96;45.90
7906;BME280;13291;40.472;-3.878;2023-06-19T12:08:47;53048.00;;;-139.96;45.65
7906;BME280;13291;40.472;-3.878;2023-06-19T12:11:14;53001.97;;;-139.96;44.81
7906;BME280;13291;40.472;-3.878;2023-06-19T12:13:41;53026.00;;;-139.96;43.92
7906;BME280;13291;40.472;-3.878;2023-06-19T12:16:08;53040.00;;;-139.96;42.43
7906;BME280;13291;40.472;-3.878;2023-06-19T12:18:36;53058.00;;;-139.96;45.07
7906;BME280;13291;40.472;-3.878;2023-06-19T12:21:04;53040.00;;;-139.96;44.83
7906;BME280;13291;40.472;-3.878;2023-06-19T12:23:32;53028.00;;;-139.96;44.65
7906;BME280;13291;40.472;-3.878;2023-06-19T12:25:59;53034.00;;;-139.96;43.41
7906;BME280;13291;40.472;-3.878;2023-06-19T12:28:26;53028.00;;;-139.96;40.94
7906;BME280;13291;40.472;-3.878;2023-06-19T12:30:53;53030.00;;;-139.96;41.17
7906;BME280;13291;40.472;-3.878;2023-06-19T12:33:22;53022.00;;;-139.96;41.57
7906;BME280;13291;40.472;-3.878;2023-06-19T12:35:49;53046.00;;;-139.96;42.48
7906;BME280;13291;40.472;-3.878;2023-06-19T12:38:17;53054.00;;;-139.96;43.88
7906;BME280;13291;40.472;-3.878;2023-06-19T12:40:44;53064.00;;;-139.96;43.07
7906;BME280;13291;40.472;-3.878;2023-06-19T12:43:11;53030.00;;;-139.96;40.21